Novodmitriyevskaya Airstrip

RU-0406 · Krasnodarskiy, 俄罗斯

使用的METAR站距离机场30 km。
罗盘
风向 的 风向 090° Novodmitriyevskaya Airstrip 7/25
风: 6 kt, 2 beaufort

5 kt

1 kt
改变
0 ft 1.000 2.000 3.000 4.000 5.000
CAVOK
METAR URKK 020600Z 09003MPS CAVOK 02/M02 Q1016 R05R/CLRD70 NOSIG RMK QFE759

METAR Novodmitriyevskaya Airstrip - RU-0406

Novodmitriyevskaya Airstrip是,俄罗斯中的小机场。 该机场位于纬度44,84842和经度38,89728。 该机场有一条跑道: 7/25. 这个机场没有ICAO代码,我们使用RU-0406作为参考。 机场在Rostov-na-donu FIR中。

该航空气象观测是针对Krasnodar Pashkovsky International Airport在2024年3月2日 09:00, 当地时间进行的。

机场观察

风向为090°,速度为6 kt。

天气为CAVOK。这意味着在5.000 ft或MSA(最低安全高度)以下(以较高者为准)以下没有云。这也意味着没有观测到积雨云或高耸的积云,可见度为10 km 或者更多或更高。此外,不会有雾,降雨或其他重要天气。

温度为2 °C,阵风为-3 °C。 露点为-2 °C,相对湿度为75%。 海平面上的气压为1016 hPa (QNH)。

白天

今天,太阳从06:59升起,在18:13降落。 这适用于Novodmitriyevskaya Airstrip,世界夏令时可能有所不同。 当地时间与世界标准时间之间的时差为+3 小时。 当前,没有夏令时有效。

公司介绍

我们没有关于这个机场的公司信息。

体会

到Vliegles.nl去找飞行课程,跳伞和其他飞行体验。 浏览页面,了解Novodmitriyevskaya Airstrip附近所有可用的活动。 你也可以使用搜索功能来寻找你所在地附近的特定飞行课程、跳伞或其他飞行体验。

警示语

跑道状况 RWY 05R: 干燥, 摩擦系数 0.7

跑道

Id 标题 侧风 逆风 侧风 %
7/25 079°-259° 5 kt 19 %

逆风成分最大的方向会被突出显示,并用于横风计算。 这并不一定意味着这个方向在使用。

温度 & 天气

温度 2 °C
露点 -2 °C
相对湿度 75%
风寒 -3 °C
Kp-index 0 (0-9)

跑道状况

05R 干燥, 摩擦系数 0.7

评论

QFE759未知降水 结束于 75, 结束于

白天

日出
06:58
中午
12:35
日落
18:12 (9:04)

小工具

你想在你的网站上有一个关于Novodmitriyevskaya Airstrip的当前航空天气(METAR)的小部件吗?

显示HTML代码
?>